sim
Sign-in with your pilot id or email,
or register
Callsign
Passwort

Schedule Details

Flight Number: OEO7663
Departure: Cape Town International Airport (FACT) at 16:25
Arrival: Munich Airport (EDDM) at 04:10

Weather Information
Getting current METAR information for FACT 222000Z 22012KT CAVOK 14/12 Q1024 NOSIG
Getting current METAR information for EDDM 221950Z VRB01KT CAVOK 17/15 Q1010 NOSIG

Schedule Frequency

Route Map